Flight Track Log - Related Links

Times and Time Zones

All times are in EDT time to prevent confusion due to time zone crossing. See the CLH1267 flight status page for this flight to view local times or setup timezone preferences in your user account.

Time Position Orientation Groundspeed Altitude Reporting Facility
EDT Latitude Longitude Course Direction KTS MPH feet Rate Location/Type
Sun 12:07:00 AM 47.2591 14.8963 306° West  Level Estimated
Sun 12:08:00 AM 47.3257 14.7597 306° West  Level Estimated
Sun 12:09:00 AM 47.3922 14.6226 306° West  Level Estimated
Sun 12:10:00 AM 47.4585 14.4853 306° West  Level Estimated
Sun 12:11:00 AM 47.5246 14.3476 305° West  Level Estimated
Sun 12:12:00 AM 47.5906 14.2095 305° West  Level Estimated
Sun 12:13:00 AM 47.6564 14.0711 305° West  Level Estimated
Sun 12:14:00 AM 47.7220 13.9323 305° West  Level Estimated
Sun 12:15:00 AM 47.7874 13.7932 305° West  Level Estimated
Sun 12:16:00 AM 47.8527 13.6538 305° West  Level Estimated
Sun 12:17:00 AM 47.9106 13.5295 305° West  Level Estimated
Sun 12:18:00 AM 47.9684 13.4050 305° West  Level Estimated
Sun 12:19:00 AM 48.0260 13.2801 305° West  Level Estimated
Sun 12:20:00 AM 48.0835 13.1550 305° West  Level Estimated
Sun 12:21:00 AM 48.1408 13.0296 304° West  Level Estimated
Sun 12:22:00 AM 48.1981 12.9040 304° West  Level Estimated
Sun 12:23:00 AM 48.2551 12.7781 304° West  Level Estimated
Sun 12:24:00 AM 48.3121 12.6518 304° West  Level Estimated
Sun 12:25:00 AM 48.3689 12.5253 304° West  Level Estimated
Sun 12:26:00 AM 48.4255 12.3986 304° West  Level Estimated
Sun 12:27:00 AM 48.4821 12.2715 304° West  Level Estimated
Sun 12:28:00 AM 48.5384 12.1441 304° West  Level Estimated
Sun 12:29:00 AM 48.5947 12.0165 304° West  Level Estimated
Sun 12:30:00 AM 48.6508 11.8886 304° West  Level Estimated
Sun 12:31:00 AM 48.7067 11.7604 304° West  Level Estimated
Sun 12:32:00 AM 48.7626 11.6319 303° West  Level Estimated
Sun 12:33:00 AM 48.8182 11.5031 303° West  Level Estimated
Sun 12:34:00 AM 48.8737 11.3741 303° West  Level Estimated
Sun 12:35:00 AM 48.9291 11.2448 303° West  Level Estimated
Sun 12:36:00 AM 48.9844 11.1151 303° West  Level Estimated
Sun 12:37:00 AM 49.0395 10.9852 303° West  Level Estimated
Sun 12:38:00 AM 49.0944 10.8550 303° West  Level Estimated
Sun 12:39:00 AM 49.1492 10.7245 303° West  Level Estimated
Sun 12:40:00 AM 49.2039 10.5937 303° West  Level Estimated
Sun 12:41:00 AM 49.2584 10.4627 303° West  Level Estimated
Sun 12:42:00 AM 49.3127 10.3313 302° West  Level Estimated
Sun 12:43:00 AM 49.3669 10.1996 302° West  Level Estimated
Sun 12:44:00 AM 49.4210 10.0677 302° West  Level Estimated
Sun 12:45:00 AM 49.4749 9.9355 302° West  Level Estimated
Sun 12:46:00 AM 49.5287 9.8030 302° West  Level Estimated
Sun 12:47:00 AM 49.5823 9.6701 302° West  Level Estimated
Sun 12:48:00 AM 49.6357 9.5371 302° West  Level Estimated
Sun 12:49:00 AM 49.6890 9.4037 302° West  Level Estimated
Sun 12:50:00 AM 49.7422 9.2700 302° West  Level Estimated
Sun 12:51:00 AM 49.7952 9.1360 302° West  Level Estimated
Sun 12:52:00 AM 49.8480 9.0017 301° West  Level Estimated
Sun 12:53:00 AM 49.9007 8.8671 301° West  Level Estimated
Sun 12:54:00 AM 49.9532 8.7323 301° West  Level Estimated
Sun 12:55:00 AM 50.0056 8.5971 301° West  Level Estimated
Sun 12:56:00 AM 50.0264 8.5431 301° West  Level Estimated
Sun 12:57:00 AM 50.0264 8.5431 73° East  Level Estimated
Sun 12:58:00 AM 50.0264 8.5431 73° East  Level Estimated
Sun 12:59:00 AM 50.0264 8.5431 73° East  Level Estimated
Sun 01:00:00 AM 50.0264 8.5431 73° East  Level Estimated
Sun 01:01:00 AM 50.0264 8.5431 73° East  Level Estimated
Sun 01:02:00 AM 50.0264 8.5431 73° East  Level Estimated
Sun 01:03:00 AM 50.0264 8.5431 73° East  Level Estimated
Sun 01:04:00 AM 50.0264 8.5431 73° East  Level Estimated
Sun 01:05:00 AM 50.0264 8.5431 73° East  Level Estimated
Sun 01:06:00 AM 50.0264 8.5431 73° East  Level Estimated
Sun 01:07:00 AM 50.0264 8.5431 73° East  Level Estimated
Sun 01:08:00 AM 50.0264 8.5431 73° East  Level Estimated
Sun 01:09:00 AM 50.0264 8.5431 73° East  Level Estimated
Sun 01:10:00 AM 50.0264 8.5431 73° East  Level Estimated
Sun 01:11:00 AM 50.0264 8.5431 73° East  Level Estimated
Sun 01:12:00 AM 50.0264 8.5431 73° East  Level Estimated
Sun 01:13:00 AM 50.0264 8.5431 73° East  Level Estimated

Login

Don't have an account? Register now (free) for customized features, flight alerts, and more!